Latest Weather Observations for Christmas Island

IDW60801

Issued at 4:02 am WST Saturday 13 February 2016 (issued every 30 minutes, with the page automatically refreshed every 10 minutes)

About weather observations | Map of weather stations | Latest weather observations for WA | Other Formats
Station Details ID: 200790 Name: CHRISTMAS ISLAND AERO Lat: -10.45 Lon: 105.69 Height: 261.0 m
Data from the previous 72 hours. | See also: Recent months at Christmas Island
Date/Time
WST
Temp
°C
App
Temp
°C
Dew
Point
Rel
Hum
%
Delta-T
°C
Wind Press
QNH
hPa
Press
MSL
hPa
Rain
since 9 am
mm
Dir
 
Spd
km/h
Gust
km/h
Spd
kts
Gust
kts
13/04:00am 24.4 27.4 23.4 94 0.7 NW 13 19 7 10 1011.8 1010.2 67.6
13/03:30am 24.4 28.4 23.7 96 0.5 WNW 9 15 5 8 1011.7 - 67.6
13/03:00am 24.2 28.0 23.5 96 0.5 NW 9 17 5 9 1011.8 - 67.6
13/02:37am 23.9 27.2 23.2 96 0.5 WNW 11 17 6 9 1011.6 - 67.6
13/02:30am 23.8 27.0 23.1 96 0.5 WNW 11 19 6 10 1011.7 - 67.4
13/02:00am 23.4 25.9 22.5 95 0.6 WNW 13 20 7 11 1011.6 - 67.4
13/01:30am 23.2 26.4 22.3 95 0.6 WNW 9 17 5 9 1012.1 - 67.0
13/01:21am 23.0 26.1 22.1 95 0.6 WNW 9 15 5 8 1012.4 - 66.6
13/01:00am 23.4 25.5 22.5 95 0.6 W 15 24 8 13 1013.0 1011.4 64.8
13/12:55am 23.8 26.2 22.9 95 0.6 WNW 15 22 8 12 1013.0 - 61.0
13/12:30am 23.8 25.8 22.9 95 0.6 WNW 17 24 9 13 1013.0 - 59.4
13/12:00am 23.6 25.4 22.6 94 0.7 WNW 17 24 9 13 1013.2 - 59.4
 
Date/Time
WST
Temp
°C
App
Temp
°C
Dew
Point
Rel
Hum
%
Delta-T
°C
Wind Press
QNH
hPa
Press
MSL
hPa
Rain
since 9 am
mm
Dir
 
Spd
km/h
Gust
km/h
Spd
kts
Gust
kts
12/11:30pm 23.9 26.1 23.2 96 0.5 WNW 17 28 9 15 1013.1 - 59.4
12/11:00pm 23.8 25.4 22.9 95 0.6 WNW 19 26 10 14 1013.0 - 59.4
12/10:30pm 24.0 25.6 22.8 93 0.8 NW 19 30 10 16 1012.9 - 59.4
12/10:00pm 24.3 26.2 22.8 91 1.0 NW 17 24 9 13 1012.7 1011.0 59.2
12/09:30pm 23.7 25.7 22.2 91 1.0 WNW 15 22 8 12 1012.4 - 59.2
12/09:00pm 23.1 25.0 22.1 94 0.7 WNW 15 20 8 11 1012.1 - 59.2
12/08:30pm 23.0 24.7 22.3 96 0.5 WNW 17 28 9 15 1011.9 - 59.2
12/08:00pm 23.2 25.0 22.5 96 0.5 WNW 17 26 9 14 1011.8 - 58.8
12/07:30pm 23.2 24.6 22.5 96 0.5 WNW 19 30 10 16 1011.7 - 58.6
12/07:25pm 23.1 24.4 22.4 96 0.5 WNW 19 30 10 16 1011.7 - 58.6
12/07:00pm 23.1 24.3 22.5 96 0.4 WNW 20 30 11 16 1011.6 1010.0 58.4
12/06:41pm 22.9 23.9 22.2 96 0.5 WNW 20 41 11 22 1011.5 - 57.8
12/06:30pm 24.2 27.3 23.5 96 0.5 WNW 13 19 7 10 1010.8 - 57.2
12/06:00pm 24.1 26.8 23.4 96 0.5 WNW 15 22 8 12 1010.3 - 56.8
12/05:30pm 24.0 26.6 23.3 96 0.5 WNW 15 22 8 12 1010.0 - 56.6
12/05:00pm 24.0 26.5 23.1 95 0.6 WNW 15 22 8 12 1010.0 - 56.4
12/04:30pm 23.8 26.7 23.1 96 0.5 WNW 13 20 7 11 1010.0 - 55.8
12/04:00pm 23.5 25.3 22.6 95 0.6 WNW 17 30 9 16 1009.9 1008.3 55.4
12/03:30pm 23.2 24.6 22.5 96 0.5 WNW 19 30 10 16 1010.2 - 54.4
12/03:18pm 23.1 24.2 22.4 96 0.5 WNW 20 32 11 17 1010.4 - 54.4
12/03:00pm 23.1 24.3 22.5 96 0.4 NW 20 39 11 21 1010.6 - 53.6
12/02:53pm 23.1 24.5 22.5 96 0.4 NW 19 30 10 16 1010.7 - 52.8
12/02:30pm 22.8 23.1 22.2 96 0.4 WNW 24 37 13 20 1011.0 - 47.6
12/02:05pm 22.6 22.0 21.9 96 0.5 NW 28 48 15 26 1011.4 - 27.6
12/02:00pm 22.7 22.9 22.0 96 0.5 NW 24 39 13 21 1011.6 - 20.2
12/01:30pm 24.6 27.4 23.7 95 0.6 WNW 15 32 8 17 1011.7 - 0.2
12/01:20pm 25.1 28.5 24.1 94 0.7 NNW 13 20 7 11 1011.5 - 0.0
12/01:09pm 25.6 27.8 24.0 91 1.1 WNW 19 28 10 15 1011.4 - 0.0
12/01:00pm 26.1 29.2 24.1 89 1.4 WNW 15 24 8 13 1011.4 1009.8 0.0
12/12:30pm 26.0 29.6 23.8 88 1.5 WNW 11 19 6 10 1012.1 - 0.0
12/12:00pm 25.9 29.1 23.7 88 1.5 WNW 13 20 7 11 1012.4 - 0.0
12/11:30am 26.3 30.4 24.0 87 1.6 WNW 9 19 5 10 1012.4 - 0.0
12/11:00am 26.1 30.4 24.2 89 1.3 W 9 17 5 9 1012.5 - 0.0
12/10:30am 25.7 30.4 24.3 92 1.0 W 7 15 4 8 1012.7 - 0.0
12/10:00am 25.1 29.6 23.9 93 0.8 W 7 13 4 7 1012.9 1011.3 30.2
12/09:30am 25.0 29.0 23.7 92 0.9 W 9 15 5 8 1012.7 - 30.2
12/09:00am 25.0 29.3 24.3 96 0.5 WNW 9 15 5 8 1012.5 - 30.2
12/08:30am 24.8 29.4 24.2 96 0.4 W 7 13 4 7 1012.4 - 30.2
12/08:00am 24.6 29.1 24.0 96 0.4 W 7 11 4 6 1012.2 - 30.2
12/07:30am 24.3 28.3 23.7 96 0.4 WNW 9 13 5 7 1011.8 - 30.2
12/07:00am 24.1 27.9 23.5 96 0.4 W 9 15 5 8 1011.5 1009.9 30.2
12/06:30am 24.0 27.8 23.4 96 0.4 W 9 13 5 7 1011.1 - 30.2
12/06:00am 24.0 28.2 23.4 96 0.4 WNW 7 11 4 6 1010.9 - 30.0
12/05:30am 23.9 27.6 23.3 96 0.4 W 9 13 5 7 1010.8 - 30.0
12/05:00am 23.8 27.4 23.1 96 0.5 W 9 15 5 8 1010.9 - 30.0
12/04:30am 23.8 27.4 23.1 96 0.5 W 9 19 5 10 1011.0 - 30.0
12/04:00am 23.8 27.5 23.2 96 0.4 W 9 15 5 8 1011.0 1009.4 29.8
12/03:37am 23.7 27.3 23.1 96 0.4 W 9 17 5 9 1011.2 - 29.6
12/03:33am 23.7 27.3 23.0 96 0.5 W 9 17 5 9 1011.1 - 29.6
12/03:30am 23.6 27.2 23.0 96 0.4 W 9 17 5 9 1011.1 - 29.6
12/03:00am 23.8 27.9 23.2 96 0.4 W 7 13 4 7 1011.1 - 28.4
12/02:55am 23.8 27.5 23.2 96 0.4 W 9 13 5 7 1011.1 - 28.2
12/02:30am 24.0 27.8 23.4 96 0.4 W 9 13 5 7 1011.1 - 27.4
12/02:29am 24.0 27.8 23.4 96 0.4 W 9 13 5 7 1011.1 - 27.4
12/02:00am 23.6 27.5 23.0 96 0.4 WNW 7 13 4 7 1011.3 - 27.0
12/01:30am 23.6 27.2 23.0 96 0.4 WNW 9 15 5 8 1011.8 - 26.2
12/01:00am 23.6 26.8 23.0 96 0.4 WNW 11 19 6 10 1012.5 1010.8 24.8
12/12:30am 23.5 26.6 22.9 96 0.4 WNW 11 19 6 10 1012.8 - 23.4
12/12:00am 23.4 26.1 22.8 96 0.4 WNW 13 17 7 9 1013.1 - 22.0
 
Date/Time
WST
Temp
°C
App
Temp
°C
Dew
Point
Rel
Hum
%
Delta-T
°C
Wind Press
QNH
hPa
Press
MSL
hPa
Rain
since 9 am
mm
Dir
 
Spd
km/h
Gust
km/h
Spd
kts
Gust
kts
11/11:56pm 23.4 26.5 22.8 96 0.4 WNW 11 19 6 10 1013.1 - 21.8
11/11:47pm 23.4 26.5 22.8 96 0.4 WNW 11 20 6 11 1013.2 - 21.2
11/11:30pm 23.6 27.5 23.0 96 0.4 NW 7 9 4 5 1013.5 - 20.0
11/11:18pm 23.9 27.6 23.2 96 0.5 NNW 9 13 5 7 1013.6 - 19.2
11/11:14pm 23.9 27.6 23.2 96 0.5 NNW 9 13 5 7 1013.6 - 18.8
11/11:00pm 23.8 27.5 23.2 96 0.4 NW 9 11 5 6 1013.3 - 18.2
11/10:56pm 23.8 27.4 23.1 96 0.5 NW 9 11 5 6 1013.2 - 17.6
11/10:39pm 23.8 27.8 23.1 96 0.5 W 7 9 4 5 1012.9 - 15.8
11/10:30pm 23.6 28.4 22.9 96 0.5 SSW 2 9 1 5 1012.9 - 14.4
11/10:00pm 23.6 28.9 23.0 96 0.4 CALM 0 0 0 0 1012.8 1011.2 13.2
11/09:30pm 23.8 29.1 23.1 96 0.5 CALM 0 0 0 0 1012.8 - 11.6
11/09:29pm 23.8 29.1 23.1 96 0.5 CALM 0 0 0 0 1012.8 - 11.6
11/09:17pm 23.8 29.1 23.1 96 0.5 CALM 0 0 0 0 1012.6 - 11.4
11/09:01pm 23.7 29.0 23.0 96 0.5 CALM 0 0 0 0 1012.4 - 11.4
11/09:00pm 23.6 28.9 23.0 96 0.4 CALM 0 0 0 0 1012.4 - 11.4
11/08:30pm 23.7 27.8 23.0 96 0.5 S 6 9 3 5 1011.9 - 11.2
11/08:12pm 23.7 28.2 23.0 96 0.5 S 4 15 2 8 1011.7 - 11.2
11/08:00pm 23.5 28.0 22.9 96 0.4 SSW 4 6 2 3 1011.7 - 11.2
11/07:44pm 23.5 27.5 22.8 96 0.5 SSW 6 9 3 5 1011.4 - 11.2
11/07:34pm 23.4 27.2 22.8 96 0.4 SSW 7 13 4 7 1011.2 - 11.2
11/07:30pm 23.6 27.1 22.9 96 0.5 SSW 9 13 5 7 1011.1 - 11.2
11/07:19pm 23.6 27.1 22.9 96 0.5 S 9 13 5 7 1011.0 - 11.2
11/07:11pm 23.8 27.8 23.1 96 0.5 S 7 11 4 6 1011.1 - 11.2
11/07:06pm 23.8 27.8 23.1 96 0.5 S 7 11 4 6 1011.1 - 10.8
11/07:04pm 23.8 27.7 22.9 95 0.6 SSW 7 11 4 6 1011.1 - 10.8
11/07:00pm 23.9 28.0 23.0 95 0.6 SW 6 9 3 5 1011.0 1009.4 10.8
11/06:40pm 24.0 27.6 23.1 95 0.6 SW 9 15 5 8 1010.8 - 10.8
11/06:30pm 24.1 27.4 23.2 95 0.6 SW 11 17 6 9 1010.5 - 10.8
11/06:27pm 24.2 27.6 23.3 95 0.6 SW 11 19 6 10 1010.5 - 10.8
11/06:00pm 24.7 29.0 23.7 94 0.7 WSW 7 13 4 7 1010.2 - 10.8
11/05:52pm 24.8 29.2 23.8 94 0.7 W 7 13 4 7 1010.0 - 10.8
11/05:30pm 24.7 28.7 23.7 94 0.7 W 9 15 5 8 1009.9 - 10.8
11/05:18pm 24.8 28.8 23.8 94 0.7 W 9 17 5 9 1009.8 - 10.8
11/05:00pm 25.2 29.7 23.9 92 0.9 W 7 11 4 6 1009.7 - 10.4
11/04:49pm 25.5 29.6 23.9 91 1.1 W 9 19 5 10 1009.8 - 6.2
11/04:37pm 26.5 30.8 23.6 84 2.0 WNW 7 17 4 9 1009.6 - 2.0
11/04:30pm 27.6 32.1 24.0 81 2.5 W 7 15 4 8 1009.5 - 0.2
11/04:00pm 27.5 30.3 23.0 76 3.1 NW 13 20 7 11 1009.6 1008.0 0.2
11/03:30pm 27.8 31.0 23.0 75 3.3 W 11 19 6 10 1009.7 - 0.2
11/03:24pm 27.4 30.2 23.0 77 3.0 W 13 20 7 11 1009.8 - 0.2
11/03:05pm 27.5 31.2 23.3 78 2.9 W 9 17 5 9 1009.9 - 0.2
11/03:00pm 28.1 32.0 23.6 76 3.1 W 9 17 5 9 1009.9 - 0.2
11/02:30pm 28.1 30.4 22.7 72 3.7 WNW 15 22 8 12 1010.0 - 0.2
11/02:20pm 27.9 30.6 22.8 74 3.5 WNW 13 22 7 12 1010.1 - 0.2
11/02:00pm 27.7 30.7 24.0 80 2.6 WNW 15 24 8 13 1010.3 - 0.2
11/01:30pm 26.5 29.4 23.8 85 1.9 NNW 15 46 8 25 1010.6 - 0.2
11/01:00pm 26.6 30.1 24.2 87 1.7 NW 13 20 7 11 1010.9 1009.3 0.2
11/12:51pm 26.9 30.4 24.2 85 1.9 NNW 13 20 7 11 1011.0 - 0.2
11/12:30pm 28.6 32.1 24.2 77 3.1 NNW 13 22 7 12 1011.1 - 0.2
11/12:00pm 27.1 30.7 23.8 82 2.3 NW 11 19 6 10 1011.4 - 0.2
11/11:30am 26.6 30.9 24.2 87 1.7 NNW 9 13 5 7 1011.6 - 0.0
11/11:00am 27.0 32.3 24.9 88 1.5 NNW 6 13 3 7 1011.5 - 0.0
11/10:30am 26.3 30.3 23.8 86 1.7 N 9 11 5 6 1011.6 - 0.0
11/10:00am 26.5 31.3 24.2 87 1.6 NW 6 11 3 6 1011.8 1010.2 6.8
11/09:30am 25.8 30.1 24.2 91 1.1 WNW 9 13 5 7 1012.1 - 6.8
11/09:00am 25.7 30.1 24.4 92 0.9 WNW 9 15 5 8 1011.9 - 6.8
11/08:30am 25.1 29.3 24.1 94 0.7 WNW 9 13 5 7 1011.5 - 6.8
11/08:00am 24.9 28.5 23.7 93 0.8 NNW 11 24 6 13 1011.2 - 6.6
11/07:30am 25.0 29.9 24.3 96 0.5 N 6 7 3 4 1010.8 - 6.6
11/07:25am 25.1 30.0 24.4 96 0.5 N 6 7 3 4 1010.8 - 6.6
11/07:00am 25.7 31.3 24.8 95 0.6 N 4 7 2 4 1010.6 1009.0 6.6
11/06:49am 25.4 30.8 24.5 95 0.6 N 4 9 2 5 1010.6 - 6.6
11/06:47am 25.4 30.4 24.5 95 0.6 N 6 9 3 5 1010.6 - 6.6
11/06:30am 25.4 29.5 24.5 95 0.6 NNW 11 15 6 8 1010.5 - 6.0
11/06:27am 25.4 29.0 24.4 94 0.7 NNW 13 20 7 11 1010.6 - 5.4
11/06:23am 25.2 28.7 24.2 94 0.7 N 13 20 7 11 1010.6 - 4.8
11/06:21am 25.4 28.9 24.2 93 0.8 N 13 20 7 11 1010.5 - 4.6
11/06:17am 25.3 29.9 24.1 93 0.8 NNE 7 20 4 11 1010.6 - 4.2
11/06:00am 25.6 30.4 24.2 92 1.0 NE 6 9 3 5 1010.3 - 1.4
11/05:53am 25.6 30.5 24.3 92 0.9 NE 6 11 3 6 1010.2 - 0.6
11/05:30am 25.0 29.4 23.5 91 1.0 NE 6 7 3 4 1010.0 - 0.0
11/05:00am 25.2 29.5 23.3 89 1.3 NE 6 7 3 4 1010.1 - 0.0
11/04:30am 24.9 29.4 23.6 92 0.9 NE 6 7 3 4 1010.0 - 0.0
11/04:00am 24.4 28.6 23.1 92 0.9 NE 6 7 3 4 1010.0 1008.4 0.0
11/03:30am 24.6 28.8 23.1 91 1.0 NE 6 7 3 4 1010.3 - 0.0
11/03:00am 25.0 29.2 23.1 89 1.3 NE 6 7 3 4 1010.5 - 0.0
11/02:30am 25.3 29.4 23.3 89 1.4 NE 7 7 4 4 1010.5 - 0.0
11/02:00am 25.2 29.5 23.3 89 1.3 NE 6 7 3 4 1010.8 - 0.0
11/01:30am 25.4 30.2 23.5 89 1.3 NE 4 6 2 3 1011.1 - 0.0
11/01:00am 26.3 30.5 23.4 84 2.0 NE 7 11 4 6 1011.3 1009.7 0.0
11/12:30am 26.7 31.0 23.7 83 2.1 NE 7 11 4 6 1011.7 - 0.0
11/12:00am 26.6 30.2 23.1 81 2.4 NE 9 11 5 6 1011.8 - 0.0
 
Date/Time
WST
Temp
°C
App
Temp
°C
Dew
Point
Rel
Hum
%
Delta-T
°C
Wind Press
QNH
hPa
Press
MSL
hPa
Rain
since 9 am
mm
Dir
 
Spd
km/h
Gust
km/h
Spd
kts
Gust
kts
10/11:30pm 26.8 30.2 22.7 78 2.8 ENE 9 15 5 8 1011.8 - 0.0
10/11:00pm 26.8 30.2 23.3 81 2.4 ENE 11 17 6 9 1011.9 - 0.0
10/10:30pm 26.9 30.8 23.6 82 2.3 NE 9 15 5 8 1012.1 - 0.0
10/10:00pm 26.9 30.9 23.7 82 2.2 ENE 9 13 5 7 1011.6 1010.0 0.0
10/09:30pm 26.9 30.9 23.7 82 2.2 ENE 9 13 5 7 1011.5 - 0.0
10/09:00pm 26.6 30.8 23.4 82 2.2 ENE 7 9 4 5 1011.3 - 0.0
10/08:30pm 26.8 31.0 23.2 80 2.5 ENE 6 9 3 5 1011.2 - 0.0
10/08:00pm 27.0 30.8 22.8 78 2.9 ENE 7 9 4 5 1011.2 - 0.0
10/07:30pm 27.2 31.0 22.8 77 3.0 ENE 7 9 4 5 1010.9 - 0.0
10/07:00pm 27.7 31.5 22.7 74 3.4 ENE 7 11 4 6 1010.7 1009.1 0.0
10/06:30pm 28.4 31.4 22.6 71 4.0 ENE 11 13 6 7 1010.5 - 0.0
10/06:00pm 28.2 31.2 22.7 72 3.8 NNE 11 15 6 8 1009.9 - 0.0
10/05:30pm 28.5 31.4 22.5 70 4.1 E 11 17 6 9 1009.6 - 0.0
10/05:00pm 28.9 32.8 23.6 73 3.7 ENE 9 15 5 8 1009.4 - 0.0
10/04:30pm 28.9 31.7 23.0 70 4.1 NE 13 17 7 9 1009.6 - 0.0
10/04:00pm 28.9 32.2 22.6 69 4.3 ENE 9 15 5 8 1009.8 1008.2 0.0
10/03:30pm 28.7 31.9 23.0 71 3.9 ENE 11 15 6 8 1010.1 - 0.0
10/03:00pm 28.8 31.6 23.0 71 4.0 E 13 17 7 9 1010.4 - 0.0
10/02:30pm 28.2 32.0 23.4 75 3.3 E 9 17 5 9 1010.7 - 0.0
10/02:00pm 27.7 31.3 24.3 82 2.4 E 13 19 7 10 1011.3 - 0.0
10/01:30pm 28.0 30.2 24.0 79 2.8 E 19 30 10 16 1011.5 - 0.0
10/01:00pm 28.7 31.3 22.6 69 4.2 E 13 19 7 10 1011.8 1010.2 0.0
10/12:32pm 28.6 32.0 23.4 73 3.6 ENE 11 17 6 9 1012.1 - 0.0
10/12:30pm 28.3 31.5 23.1 73 3.6 ENE 11 17 6 9 1012.2 - 0.0
10/12:12pm 28.5 31.9 23.3 73 3.6 NE 11 17 6 9 1012.3 - 0.0
10/12:00pm 28.6 32.0 23.4 73 3.6 ENE 11 17 6 9 1012.4 - 0.0
10/11:36am 28.7 32.2 23.5 73 3.6 E 11 19 6 10 1012.4 - 0.0
10/11:30am 28.9 31.9 23.3 72 3.9 E 13 22 7 12 1012.4 - 0.0
10/11:00am 28.9 32.2 23.9 74 3.5 E 13 19 7 10 1012.5 - 0.0
10/10:55am 28.3 31.6 23.8 76 3.1 E 13 19 7 10 1012.5 - 0.0
10/10:30am 29.0 32.2 23.1 70 4.1 E 11 17 6 9 1012.7 - 0.0
10/10:00am 28.7 32.3 23.8 75 3.4 E 11 15 6 8 1012.7 1011.0 0.8
10/09:30am 28.6 31.8 22.3 68 4.3 E 9 15 5 8 1012.4 - 0.6
10/09:00am 28.0 31.4 23.4 76 3.2 E 11 17 6 9 1012.4 - 0.6
10/08:30am 27.6 31.5 23.6 79 2.8 E 9 17 5 9 1012.1 - 0.6
10/08:29am 27.6 31.3 23.3 77 3.0 E 9 17 5 9 1012.1 - 0.6
10/08:00am 26.0 29.8 24.1 89 1.3 SE 11 17 6 9 1011.6 - 0.6
10/07:51am 25.6 29.9 24.2 92 1.0 SE 9 15 5 8 1011.5 - 0.6
10/07:30am 24.9 29.9 23.9 94 0.7 SE 4 9 2 5 1011.3 - 0.6
10/07:00am 24.3 29.0 23.4 95 0.6 SE 4 9 2 5 1011.0 1009.4 0.6
10/06:30am 24.3 29.8 23.4 95 0.6 CALM 0 0 0 0 1010.8 - 0.6
10/06:00am 24.6 29.9 23.7 95 0.6 SE 2 6 1 3 1010.7 - 0.6
10/05:30am 24.8 29.1 23.6 93 0.8 SE 7 9 4 5 1010.5 - 0.6
10/05:06am 25.0 29.7 24.0 94 0.7 SE 6 7 3 4 1010.6 - 0.6

Other Formats:

Comma delimited format used in spreadsheet applications
http://www.bom.gov.au/fwo/IDW60801/IDW60801.96995.axf

JavaScript Object Notation format (JSON) in row-major order
http://www.bom.gov.au/fwo/IDW60801/IDW60801.96995.json